Thaxted, United Kingdom
Current Conditions -  °F | °C
As of 10:50 AM on Friday 19 Dec 2014 (Local Time) from EGSS Reporting Station
Clear Clear  
Wind Chill: 41°   Ceiling: Unl
Heat Index: 46°   Visibility: 6mi
Dew Point: 37°   Wind: 10mph
Humidity: 71%   Direction: 270°W
Pressure: 29.94"   Gusts: NA
Location:  51.95°N, 0.34°E
Report Text: EGSS 191050Z 27009KT 250V310 CAVOK 08/03 Q1014
Loading
Personal Weather Stations






























Interactive Weather Map New forecast layout! Learn more

10-Day Weather Forecast

Advertisements
Track Severe Weather on mobile